sensor_id;sensor_type;location;lat;lon;timestamp;P1;durP1;ratioP1;P2;durP2;ratioP2
36351;SDS011;22382;44.768;17.206;2023-05-29T00:01:43;12.65;;;9.85;;
36351;SDS011;22382;44.768;17.206;2023-05-29T00:04:11;14.25;;;10.40;;
36351;SDS011;22382;44.768;17.206;2023-05-29T00:06:39;17.83;;;10.32;;
36351;SDS011;22382;44.768;17.206;2023-05-29T00:09:07;12.25;;;10.00;;
36351;SDS011;22382;44.768;17.206;2023-05-29T00:11:34;13.00;;;10.05;;
36351;SDS011;22382;44.768;17.206;2023-05-29T00:14:02;15.88;;;9.68;;
36351;SDS011;22382;44.768;17.206;2023-05-29T00:16:29;15.93;;;9.57;;
36351;SDS011;22382;44.768;17.206;2023-05-29T00:18:56;16.85;;;10.65;;
36351;SDS011;22382;44.768;17.206;2023-05-29T00:21:24;13.88;;;9.57;;
36351;SDS011;22382;44.768;17.206;2023-05-29T00:23:51;15.65;;;10.25;;
36351;SDS011;22382;44.768;17.206;2023-05-29T00:26:19;15.30;;;9.85;;
36351;SDS011;22382;44.768;17.206;2023-05-29T00:28:46;14.07;;;9.80;;
36351;SDS011;22382;44.768;17.206;2023-05-29T00:31:13;13.80;;;10.80;;
36351;SDS011;22382;44.768;17.206;2023-05-29T00:33:40;14.43;;;9.90;;
36351;SDS011;22382;44.768;17.206;2023-05-29T00:36:08;13.55;;;9.63;;
36351;SDS011;22382;44.768;17.206;2023-05-29T00:38:35;13.68;;;10.23;;
36351;SDS011;22382;44.768;17.206;2023-05-29T00:41:02;16.60;;;10.32;;
36351;SDS011;22382;44.768;17.206;2023-05-29T00:43:29;14.50;;;10.95;;
36351;SDS011;22382;44.768;17.206;2023-05-29T00:45:57;11.98;;;9.75;;
36351;SDS011;22382;44.768;17.206;2023-05-29T00:48:25;13.07;;;10.07;;
36351;SDS011;22382;44.768;17.206;2023-05-29T00:50:52;14.90;;;10.52;;
36351;SDS011;22382;44.768;17.206;2023-05-29T00:53:20;13.25;;;9.55;;
36351;SDS011;22382;44.768;17.206;2023-05-29T00:55:49;14.48;;;10.55;;
36351;SDS011;22382;44.768;17.206;2023-05-29T00:58:17;15.10;;;9.90;;
36351;SDS011;22382;44.768;17.206;2023-05-29T01:00:44;12.73;;;9.40;;
36351;SDS011;22382;44.768;17.206;2023-05-29T01:03:12;12.07;;;9.73;;
36351;SDS011;22382;44.768;17.206;2023-05-29T01:05:44;13.40;;;9.80;;
36351;SDS011;22382;44.768;17.206;2023-05-29T01:08:12;14.18;;;10.05;;
36351;SDS011;22382;44.768;17.206;2023-05-29T01:10:40;13.50;;;10.40;;
36351;SDS011;22382;44.768;17.206;2023-05-29T01:13:15;12.60;;;9.77;;
36351;SDS011;22382;44.768;17.206;2023-05-29T01:16:08;14.02;;;9.75;;
36351;SDS011;22382;44.768;17.206;2023-05-29T01:18:46;13.50;;;10.27;;
36351;SDS011;22382;44.768;17.206;2023-05-29T01:21:42;15.68;;;9.60;;
36351;SDS011;22382;44.768;17.206;2023-05-29T01:29:23;11.98;;;9.27;;
36351;SDS011;22382;44.768;17.206;2023-05-29T01:31:53;14.68;;;10.45;;
36351;SDS011;22382;44.768;17.206;2023-05-29T01:34:22;13.95;;;9.98;;
36351;SDS011;22382;44.768;17.206;2023-05-29T01:36:49;13.80;;;9.55;;
36351;SDS011;22382;44.768;17.206;2023-05-29T01:39:17;11.07;;;9.15;;
36351;SDS011;22382;44.768;17.206;2023-05-29T01:41:45;15.30;;;9.20;;
36351;SDS011;22382;44.768;17.206;2023-05-29T01:44:14;15.20;;;9.93;;
36351;SDS011;22382;44.768;17.206;2023-05-29T01:46:43;13.40;;;9.32;;
36351;SDS011;22382;44.768;17.206;2023-05-29T01:49:12;13.27;;;8.88;;
36351;SDS011;22382;44.768;17.206;2023-05-29T01:51:40;10.30;;;8.90;;
36351;SDS011;22382;44.768;17.206;2023-05-29T01:54:07;12.07;;;8.90;;
36351;SDS011;22382;44.768;17.206;2023-05-29T01:56:35;12.80;;;9.65;;
36351;SDS011;22382;44.768;17.206;2023-05-29T01:59:03;10.23;;;8.75;;
36351;SDS011;22382;44.768;17.206;2023-05-29T02:01:31;11.15;;;9.15;;
36351;SDS011;22382;44.768;17.206;2023-05-29T02:03:59;13.27;;;9.48;;
36351;SDS011;22382;44.768;17.206;2023-05-29T02:06:26;11.65;;;9.00;;
36351;SDS011;22382;44.768;17.206;2023-05-29T02:08:53;13.77;;;9.30;;
36351;SDS011;22382;44.768;17.206;2023-05-29T02:11:20;15.35;;;9.23;;
36351;SDS011;22382;44.768;17.206;2023-05-29T02:13:48;11.68;;;9.27;;
36351;SDS011;22382;44.768;17.206;2023-05-29T02:16:15;12.02;;;9.23;;
36351;SDS011;22382;44.768;17.206;2023-05-29T02:18:43;11.48;;;9.02;;
36351;SDS011;22382;44.768;17.206;2023-05-29T02:21:11;13.23;;;8.88;;
36351;SDS011;22382;44.768;17.206;2023-05-29T02:23:38;12.23;;;9.68;;
36351;SDS011;22382;44.768;17.206;2023-05-29T02:26:06;13.95;;;9.70;;
36351;SDS011;22382;44.768;17.206;2023-05-29T02:28:34;13.55;;;9.07;;
36351;SDS011;22382;44.768;17.206;2023-05-29T02:31:02;13.80;;;9.75;;
36351;SDS011;22382;44.768;17.206;2023-05-29T02:33:29;17.67;;;9.48;;
36351;SDS011;22382;44.768;17.206;2023-05-29T02:35:57;11.68;;;9.63;;
36351;SDS011;22382;44.768;17.206;2023-05-29T02:38:24;11.73;;;8.82;;
36351;SDS011;22382;44.768;17.206;2023-05-29T02:40:51;11.98;;;8.73;;
36351;SDS011;22382;44.768;17.206;2023-05-29T02:43:21;10.52;;;8.38;;
36351;SDS011;22382;44.768;17.206;2023-05-29T02:45:48;10.93;;;8.63;;
36351;SDS011;22382;44.768;17.206;2023-05-29T02:48:15;9.98;;;8.13;;
36351;SDS011;22382;44.768;17.206;2023-05-29T02:50:42;10.50;;;8.00;;
36351;SDS011;22382;44.768;17.206;2023-05-29T02:53:10;10.52;;;7.70;;
36351;SDS011;22382;44.768;17.206;2023-05-29T02:55:37;12.02;;;8.85;;
36351;SDS011;22382;44.768;17.206;2023-05-29T02:58:04;10.30;;;8.38;;
36351;SDS011;22382;44.768;17.206;2023-05-29T03:00:31;11.45;;;8.75;;
36351;SDS011;22382;44.768;17.206;2023-05-29T03:02:59;9.68;;;7.93;;
36351;SDS011;22382;44.768;17.206;2023-05-29T03:05:27;9.73;;;8.18;;
36351;SDS011;22382;44.768;17.206;2023-05-29T03:07:54;9.15;;;8.00;;
36351;SDS011;22382;44.768;17.206;2023-05-29T03:10:21;11.20;;;8.10;;
36351;SDS011;22382;44.768;17.206;2023-05-29T03:12:49;13.50;;;7.85;;
36351;SDS011;22382;44.768;17.206;2023-05-29T03:15:17;13.77;;;8.20;;
36351;SDS011;22382;44.768;17.206;2023-05-29T03:17:47;10.30;;;7.80;;
36351;SDS011;22382;44.768;17.206;2023-05-29T03:20:14;10.57;;;8.10;;
36351;SDS011;22382;44.768;17.206;2023-05-29T03:22:42;11.40;;;8.07;;
36351;SDS011;22382;44.768;17.206;2023-05-29T03:25:09;11.88;;;7.80;;
36351;SDS011;22382;44.768;17.206;2023-05-29T03:27:36;10.02;;;7.82;;
36351;SDS011;22382;44.768;17.206;2023-05-29T03:30:04;8.93;;;7.25;;
36351;SDS011;22382;44.768;17.206;2023-05-29T03:32:32;10.85;;;8.07;;
36351;SDS011;22382;44.768;17.206;2023-05-29T03:34:59;8.48;;;7.32;;
36351;SDS011;22382;44.768;17.206;2023-05-29T03:37:27;10.43;;;7.50;;
36351;SDS011;22382;44.768;17.206;2023-05-29T03:39:54;9.18;;;7.40;;
36351;SDS011;22382;44.768;17.206;2023-05-29T03:42:21;8.88;;;7.63;;
36351;SDS011;22382;44.768;17.206;2023-05-29T03:44:48;9.48;;;7.78;;
36351;SDS011;22382;44.768;17.206;2023-05-29T03:47:16;9.60;;;7.43;;
36351;SDS011;22382;44.768;17.206;2023-05-29T03:49:43;8.63;;;7.32;;
36351;SDS011;22382;44.768;17.206;2023-05-29T03:52:10;8.70;;;7.38;;
36351;SDS011;22382;44.768;17.206;2023-05-29T03:54:38;8.15;;;7.05;;
36351;SDS011;22382;44.768;17.206;2023-05-29T03:57:05;9.40;;;7.03;;
36351;SDS011;22382;44.768;17.206;2023-05-29T03:59:33;8.27;;;6.97;;
36351;SDS011;22382;44.768;17.206;2023-05-29T04:02:00;8.52;;;6.40;;
36351;SDS011;22382;44.768;17.206;2023-05-29T04:04:27;9.25;;;7.30;;
36351;SDS011;22382;44.768;17.206;2023-05-29T04:06:55;10.18;;;7.15;;
36351;SDS011;22382;44.768;17.206;2023-05-29T04:09:23;9.18;;;7.07;;
36351;SDS011;22382;44.768;17.206;2023-05-29T04:11:50;11.43;;;7.15;;
36351;SDS011;22382;44.768;17.206;2023-05-29T04:14:18;10.70;;;7.57;;
36351;SDS011;22382;44.768;17.206;2023-05-29T04:16:46;8.73;;;7.32;;
36351;SDS011;22382;44.768;17.206;2023-05-29T04:19:13;9.52;;;6.97;;
36351;SDS011;22382;44.768;17.206;2023-05-29T04:21:40;7.95;;;6.63;;
36351;SDS011;22382;44.768;17.206;2023-05-29T04:24:07;9.02;;;6.85;;
36351;SDS011;22382;44.768;17.206;2023-05-29T04:26:35;8.27;;;7.03;;
36351;SDS011;22382;44.768;17.206;2023-05-29T04:29:02;6.93;;;6.22;;
36351;SDS011;22382;44.768;17.206;2023-05-29T04:31:30;11.13;;;7.47;;
36351;SDS011;22382;44.768;17.206;2023-05-29T04:33:58;9.15;;;7.10;;
36351;SDS011;22382;44.768;17.206;2023-05-29T04:36:27;8.07;;;6.50;;
36351;SDS011;22382;44.768;17.206;2023-05-29T04:38:54;9.00;;;7.20;;
36351;SDS011;22382;44.768;17.206;2023-05-29T04:41:23;9.18;;;6.90;;
36351;SDS011;22382;44.768;17.206;2023-05-29T04:43:55;11.40;;;6.80;;
36351;SDS011;22382;44.768;17.206;2023-05-29T04:46:23;11.32;;;7.70;;
36351;SDS011;22382;44.768;17.206;2023-05-29T04:48:51;16.13;;;7.55;;
36351;SDS011;22382;44.768;17.206;2023-05-29T04:51:23;9.93;;;6.88;;
36351;SDS011;22382;44.768;17.206;2023-05-29T04:53:51;11.07;;;7.47;;
36351;SDS011;22382;44.768;17.206;2023-05-29T04:56:18;8.40;;;6.50;;
36351;SDS011;22382;44.768;17.206;2023-05-29T04:58:47;10.55;;;6.85;;
36351;SDS011;22382;44.768;17.206;2023-05-29T05:01:14;8.07;;;5.97;;
36351;SDS011;22382;44.768;17.206;2023-05-29T05:03:41;9.32;;;6.30;;
36351;SDS011;22382;44.768;17.206;2023-05-29T05:06:09;7.43;;;5.82;;
36351;SDS011;22382;44.768;17.206;2023-05-29T05:08:39;8.95;;;5.97;;
36351;SDS011;22382;44.768;17.206;2023-05-29T05:11:06;8.40;;;6.55;;
36351;SDS011;22382;44.768;17.206;2023-05-29T05:13:33;7.25;;;5.45;;
36351;SDS011;22382;44.768;17.206;2023-05-29T05:16:00;9.25;;;5.45;;
36351;SDS011;22382;44.768;17.206;2023-05-29T05:18:28;7.80;;;5.82;;
36351;SDS011;22382;44.768;17.206;2023-05-29T05:20:55;6.43;;;5.43;;
36351;SDS011;22382;44.768;17.206;2023-05-29T05:23:23;7.32;;;5.57;;
36351;SDS011;22382;44.768;17.206;2023-05-29T05:25:50;7.78;;;5.20;;
36351;SDS011;22382;44.768;17.206;2023-05-29T05:28:17;6.63;;;5.35;;
36351;SDS011;22382;44.768;17.206;2023-05-29T05:30:44;8.93;;;6.00;;
36351;SDS011;22382;44.768;17.206;2023-05-29T05:33:12;6.45;;;5.05;;
36351;SDS011;22382;44.768;17.206;2023-05-29T05:35:39;6.78;;;5.10;;
36351;SDS011;22382;44.768;17.206;2023-05-29T05:38:07;9.63;;;6.07;;
36351;SDS011;22382;44.768;17.206;2023-05-29T05:40:34;8.35;;;6.13;;
36351;SDS011;22382;44.768;17.206;2023-05-29T05:43:01;7.25;;;5.65;;
36351;SDS011;22382;44.768;17.206;2023-05-29T05:45:29;9.48;;;7.20;;
36351;SDS011;22382;44.768;17.206;2023-05-29T05:47:56;9.00;;;5.97;;
36351;SDS011;22382;44.768;17.206;2023-05-29T05:50:23;11.48;;;5.88;;
36351;SDS011;22382;44.768;17.206;2023-05-29T05:52:51;7.85;;;5.45;;
36351;SDS011;22382;44.768;17.206;2023-05-29T05:55:19;9.93;;;5.30;;
36351;SDS011;22382;44.768;17.206;2023-05-29T05:57:46;11.73;;;6.43;;
36351;SDS011;22382;44.768;17.206;2023-05-29T06:00:14;7.32;;;5.75;;
36351;SDS011;22382;44.768;17.206;2023-05-29T06:02:42;11.13;;;5.30;;
36351;SDS011;22382;44.768;17.206;2023-05-29T06:05:11;6.68;;;5.07;;
36351;SDS011;22382;44.768;17.206;2023-05-29T06:07:39;8.43;;;4.97;;
36351;SDS011;22382;44.768;17.206;2023-05-29T06:10:06;10.63;;;5.47;;
36351;SDS011;22382;44.768;17.206;2023-05-29T06:12:34;10.68;;;5.93;;
36351;SDS011;22382;44.768;17.206;2023-05-29T06:15:01;9.93;;;7.68;;
36351;SDS011;22382;44.768;17.206;2023-05-29T06:17:30;9.60;;;5.82;;
36351;SDS011;22382;44.768;17.206;2023-05-29T06:19:58;9.07;;;6.07;;
36351;SDS011;22382;44.768;17.206;2023-05-29T06:22:26;7.53;;;5.28;;
36351;SDS011;22382;44.768;17.206;2023-05-29T06:24:54;8.50;;;6.57;;
36351;SDS011;22382;44.768;17.206;2023-05-29T06:27:21;11.93;;;5.82;;
36351;SDS011;22382;44.768;17.206;2023-05-29T06:29:52;9.15;;;6.28;;
36351;SDS011;22382;44.768;17.206;2023-05-29T06:32:19;9.52;;;6.70;;
36351;SDS011;22382;44.768;17.206;2023-05-29T06:34:48;7.20;;;5.78;;
36351;SDS011;22382;44.768;17.206;2023-05-29T06:37:15;8.43;;;6.13;;
36351;SDS011;22382;44.768;17.206;2023-05-29T06:39:45;9.55;;;7.30;;
36351;SDS011;22382;44.768;17.206;2023-05-29T06:42:12;12.27;;;7.95;;
36351;SDS011;22382;44.768;17.206;2023-05-29T06:44:40;9.23;;;5.80;;
36351;SDS011;22382;44.768;17.206;2023-05-29T06:47:07;9.40;;;5.65;;
36351;SDS011;22382;44.768;17.206;2023-05-29T06:49:34;8.05;;;5.38;;
36351;SDS011;22382;44.768;17.206;2023-05-29T06:52:02;12.23;;;6.35;;
36351;SDS011;22382;44.768;17.206;2023-05-29T06:54:29;10.20;;;6.00;;
36351;SDS011;22382;44.768;17.206;2023-05-29T06:56:56;8.50;;;6.10;;
36351;SDS011;22382;44.768;17.206;2023-05-29T06:59:37;7.97;;;6.00;;
36351;SDS011;22382;44.768;17.206;2023-05-29T07:02:06;11.30;;;6.35;;
36351;SDS011;22382;44.768;17.206;2023-05-29T07:04:33;10.85;;;6.55;;
36351;SDS011;22382;44.768;17.206;2023-05-29T07:07:01;11.00;;;6.10;;
36351;SDS011;22382;44.768;17.206;2023-05-29T07:09:28;10.88;;;6.22;;
36351;SDS011;22382;44.768;17.206;2023-05-29T07:11:56;8.00;;;5.90;;
36351;SDS011;22382;44.768;17.206;2023-05-29T07:14:23;9.10;;;6.00;;
36351;SDS011;22382;44.768;17.206;2023-05-29T07:16:50;8.35;;;5.60;;
36351;SDS011;22382;44.768;17.206;2023-05-29T07:19:18;11.60;;;7.10;;
36351;SDS011;22382;44.768;17.206;2023-05-29T07:21:47;10.43;;;6.53;;
36351;SDS011;22382;44.768;17.206;2023-05-29T07:24:15;7.70;;;5.70;;
36351;SDS011;22382;44.768;17.206;2023-05-29T07:26:43;10.40;;;6.18;;
36351;SDS011;22382;44.768;17.206;2023-05-29T07:29:10;10.32;;;5.75;;
36351;SDS011;22382;44.768;17.206;2023-05-29T07:31:38;8.75;;;5.95;;
36351;SDS011;22382;44.768;17.206;2023-05-29T07:34:08;10.63;;;6.65;;
36351;SDS011;22382;44.768;17.206;2023-05-29T07:36:36;10.82;;;6.22;;
36351;SDS011;22382;44.768;17.206;2023-05-29T07:39:22;11.02;;;8.13;;
36351;SDS011;22382;44.768;17.206;2023-05-29T07:41:50;13.60;;;7.45;;
36351;SDS011;22382;44.768;17.206;2023-05-29T07:44:17;11.75;;;7.18;;
36351;SDS011;22382;44.768;17.206;2023-05-29T07:46:45;10.27;;;6.97;;
36351;SDS011;22382;44.768;17.206;2023-05-29T07:49:12;8.63;;;6.72;;
36351;SDS011;22382;44.768;17.206;2023-05-29T07:51:40;10.15;;;5.88;;
36351;SDS011;22382;44.768;17.206;2023-05-29T07:54:07;6.38;;;5.15;;
36351;SDS011;22382;44.768;17.206;2023-05-29T07:56:34;5.63;;;4.38;;
36351;SDS011;22382;44.768;17.206;2023-05-29T07:59:02;8.13;;;5.60;;
36351;SDS011;22382;44.768;17.206;2023-05-29T08:01:29;8.70;;;6.20;;
36351;SDS011;22382;44.768;17.206;2023-05-29T08:03:57;7.93;;;5.93;;
36351;SDS011;22382;44.768;17.206;2023-05-29T08:06:24;11.20;;;7.00;;
36351;SDS011;22382;44.768;17.206;2023-05-29T08:08:55;7.20;;;5.53;;
36351;SDS011;22382;44.768;17.206;2023-05-29T08:11:22;12.57;;;6.93;;
36351;SDS011;22382;44.768;17.206;2023-05-29T08:13:50;9.90;;;6.90;;
36351;SDS011;22382;44.768;17.206;2023-05-29T08:16:17;8.75;;;6.32;;
36351;SDS011;22382;44.768;17.206;2023-05-29T08:18:45;10.60;;;6.75;;
36351;SDS011;22382;44.768;17.206;2023-05-29T08:21:12;9.32;;;6.32;;
36351;SDS011;22382;44.768;17.206;2023-05-29T08:23:39;12.73;;;7.05;;
36351;SDS011;22382;44.768;17.206;2023-05-29T08:26:06;10.45;;;5.93;;
36351;SDS011;22382;44.768;17.206;2023-05-29T08:28:34;9.13;;;5.40;;
36351;SDS011;22382;44.768;17.206;2023-05-29T08:31:01;7.35;;;5.38;;
36351;SDS011;22382;44.768;17.206;2023-05-29T08:33:28;9.20;;;5.68;;
36351;SDS011;22382;44.768;17.206;2023-05-29T08:35:57;7.47;;;4.95;;
36351;SDS011;22382;44.768;17.206;2023-05-29T08:38:25;6.68;;;4.68;;
36351;SDS011;22382;44.768;17.206;2023-05-29T08:40:52;5.65;;;4.40;;
36351;SDS011;22382;44.768;17.206;2023-05-29T08:43:22;8.02;;;5.03;;
36351;SDS011;22382;44.768;17.206;2023-05-29T08:45:54;7.45;;;5.45;;
36351;SDS011;22382;44.768;17.206;2023-05-29T08:48:24;6.93;;;4.25;;
36351;SDS011;22382;44.768;17.206;2023-05-29T08:50:52;4.90;;;3.67;;
36351;SDS011;22382;44.768;17.206;2023-05-29T08:53:24;5.80;;;4.80;;
36351;SDS011;22382;44.768;17.206;2023-05-29T08:55:52;6.68;;;4.03;;
36351;SDS011;22382;44.768;17.206;2023-05-29T08:58:23;6.00;;;3.80;;
36351;SDS011;22382;44.768;17.206;2023-05-29T09:00:53;5.13;;;4.25;;
36351;SDS011;22382;44.768;17.206;2023-05-29T09:03:23;6.07;;;4.32;;
36351;SDS011;22382;44.768;17.206;2023-05-29T09:05:57;5.35;;;3.80;;
36351;SDS011;22382;44.768;17.206;2023-05-29T09:08:31;6.43;;;4.53;;
36351;SDS011;22382;44.768;17.206;2023-05-29T09:11:00;6.45;;;4.60;;
36351;SDS011;22382;44.768;17.206;2023-05-29T09:13:29;7.47;;;4.45;;
36351;SDS011;22382;44.768;17.206;2023-05-29T09:15:59;9.68;;;4.47;;
36351;SDS011;22382;44.768;17.206;2023-05-29T09:18:31;6.60;;;4.57;;
36351;SDS011;22382;44.768;17.206;2023-05-29T09:21:06;6.10;;;4.18;;
36351;SDS011;22382;44.768;17.206;2023-05-29T09:23:39;4.43;;;3.65;;
36351;SDS011;22382;44.768;17.206;2023-05-29T09:26:08;4.13;;;3.70;;
36351;SDS011;22382;44.768;17.206;2023-05-29T09:28:42;6.07;;;4.07;;
36351;SDS011;22382;44.768;17.206;2023-05-29T09:31:15;6.18;;;3.80;;
36351;SDS011;22382;44.768;17.206;2023-05-29T09:33:48;5.90;;;4.00;;
36351;SDS011;22382;44.768;17.206;2023-05-29T09:36:24;6.32;;;4.05;;
36351;SDS011;22382;44.768;17.206;2023-05-29T09:38:54;5.05;;;4.10;;
36351;SDS011;22382;44.768;17.206;2023-05-29T09:41:42;7.03;;;4.10;;
36351;SDS011;22382;44.768;17.206;2023-05-29T09:44:16;7.10;;;3.63;;
36351;SDS011;22382;44.768;17.206;2023-05-29T09:46:45;5.95;;;3.88;;
36351;SDS011;22382;44.768;17.206;2023-05-29T09:49:18;4.15;;;3.75;;
36351;SDS011;22382;44.768;17.206;2023-05-29T09:51:54;4.18;;;3.75;;
36351;SDS011;22382;44.768;17.206;2023-05-29T09:54:28;5.32;;;4.10;;
36351;SDS011;22382;44.768;17.206;2023-05-29T09:57:09;6.63;;;4.10;;
36351;SDS011;22382;44.768;17.206;2023-05-29T09:59:44;6.82;;;4.07;;
36351;SDS011;22382;44.768;17.206;2023-05-29T10:02:19;5.70;;;4.15;;
36351;SDS011;22382;44.768;17.206;2023-05-29T10:04:49;6.13;;;4.50;;
36351;SDS011;22382;44.768;17.206;2023-05-29T10:10:00;5.78;;;3.85;;
36351;SDS011;22382;44.768;17.206;2023-05-29T10:12:36;5.63;;;3.55;;
36351;SDS011;22382;44.768;17.206;2023-05-29T10:15:09;3.80;;;3.20;;
36351;SDS011;22382;44.768;17.206;2023-05-29T10:18:01;3.63;;;3.00;;
36351;SDS011;22382;44.768;17.206;2023-05-29T10:20:37;5.05;;;3.75;;
36351;SDS011;22382;44.768;17.206;2023-05-29T10:23:10;7.20;;;4.00;;
36351;SDS011;22382;44.768;17.206;2023-05-29T10:25:44;7.65;;;4.13;;
36351;SDS011;22382;44.768;17.206;2023-05-29T10:28:21;7.85;;;3.70;;
36351;SDS011;22382;44.768;17.206;2023-05-29T10:30:54;3.78;;;3.28;;
36351;SDS011;22382;44.768;17.206;2023-05-29T10:33:48;5.55;;;3.58;;
36351;SDS011;22382;44.768;17.206;2023-05-29T10:36:18;5.38;;;3.65;;
36351;SDS011;22382;44.768;17.206;2023-05-29T10:38:50;7.90;;;3.63;;
36351;SDS011;22382;44.768;17.206;2023-05-29T10:43:55;5.88;;;3.65;;
36351;SDS011;22382;44.768;17.206;2023-05-29T10:49:18;4.85;;;3.55;;
36351;SDS011;22382;44.768;17.206;2023-05-29T10:51:46;5.90;;;3.63;;
36351;SDS011;22382;44.768;17.206;2023-05-29T10:54:24;5.03;;;3.60;;
36351;SDS011;22382;44.768;17.206;2023-05-29T10:56:52;6.93;;;3.50;;
36351;SDS011;22382;44.768;17.206;2023-05-29T10:59:23;5.20;;;3.73;;
36351;SDS011;22382;44.768;17.206;2023-05-29T11:01:55;7.03;;;3.58;;
36351;SDS011;22382;44.768;17.206;2023-05-29T11:06:52;5.55;;;3.33;;
36351;SDS011;22382;44.768;17.206;2023-05-29T11:14:56;4.85;;;3.40;;
36351;SDS011;22382;44.768;17.206;2023-05-29T11:20:07;6.03;;;3.42;;
36351;SDS011;22382;44.768;17.206;2023-05-29T11:25:15;4.68;;;2.90;;
36351;SDS011;22382;44.768;17.206;2023-05-29T11:27:43;5.45;;;4.00;;
36351;SDS011;22382;44.768;17.206;2023-05-29T11:30:11;4.88;;;3.33;;
36351;SDS011;22382;44.768;17.206;2023-05-29T11:32:39;4.43;;;3.58;;
36351;SDS011;22382;44.768;17.206;2023-05-29T11:35:08;7.18;;;4.65;;
36351;SDS011;22382;44.768;17.206;2023-05-29T11:37:39;5.95;;;5.10;;
36351;SDS011;22382;44.768;17.206;2023-05-29T11:40:13;5.75;;;4.63;;
36351;SDS011;22382;44.768;17.206;2023-05-29T11:42:44;6.32;;;4.47;;
36351;SDS011;22382;44.768;17.206;2023-05-29T11:45:19;6.53;;;4.63;;
36351;SDS011;22382;44.768;17.206;2023-05-29T11:50:23;7.78;;;4.63;;
36351;SDS011;22382;44.768;17.206;2023-05-29T11:52:54;5.93;;;4.38;;
36351;SDS011;22382;44.768;17.206;2023-05-29T11:55:23;7.07;;;4.57;;
36351;SDS011;22382;44.768;17.206;2023-05-29T11:57:55;7.03;;;5.00;;
36351;SDS011;22382;44.768;17.206;2023-05-29T12:00:26;6.95;;;4.78;;
36351;SDS011;22382;44.768;17.206;2023-05-29T12:03:04;5.50;;;4.90;;
36351;SDS011;22382;44.768;17.206;2023-05-29T12:05:43;8.30;;;4.60;;
36351;SDS011;22382;44.768;17.206;2023-05-29T12:08:12;6.43;;;4.57;;
36351;SDS011;22382;44.768;17.206;2023-05-29T12:10:46;6.07;;;4.75;;
36351;SDS011;22382;44.768;17.206;2023-05-29T12:13:20;7.35;;;4.57;;
36351;SDS011;22382;44.768;17.206;2023-05-29T12:15:48;5.63;;;4.65;;
36351;SDS011;22382;44.768;17.206;2023-05-29T12:18:19;5.35;;;4.35;;
36351;SDS011;22382;44.768;17.206;2023-05-29T12:20:47;7.50;;;4.50;;
36351;SDS011;22382;44.768;17.206;2023-05-29T12:23:14;6.35;;;4.80;;
36351;SDS011;22382;44.768;17.206;2023-05-29T12:25:45;6.82;;;4.78;;
36351;SDS011;22382;44.768;17.206;2023-05-29T12:28:15;6.78;;;4.90;;
36351;SDS011;22382;44.768;17.206;2023-05-29T12:30:46;5.47;;;4.85;;
36351;SDS011;22382;44.768;17.206;2023-05-29T12:33:33;7.30;;;5.10;;
36351;SDS011;22382;44.768;17.206;2023-05-29T12:36:04;5.78;;;4.15;;
36351;SDS011;22382;44.768;17.206;2023-05-29T12:38:46;5.00;;;4.38;;
36351;SDS011;22382;44.768;17.206;2023-05-29T12:41:24;4.80;;;4.18;;
36351;SDS011;22382;44.768;17.206;2023-05-29T12:43:53;4.57;;;4.03;;
36351;SDS011;22382;44.768;17.206;2023-05-29T12:46:25;5.00;;;4.03;;
36351;SDS011;22382;44.768;17.206;2023-05-29T12:48:55;4.85;;;4.30;;
36351;SDS011;22382;44.768;17.206;2023-05-29T12:51:26;5.38;;;4.57;;
36351;SDS011;22382;44.768;17.206;2023-05-29T12:53:53;4.80;;;4.30;;
36351;SDS011;22382;44.768;17.206;2023-05-29T12:56:22;5.47;;;4.20;;
36351;SDS011;22382;44.768;17.206;2023-05-29T12:58:50;5.05;;;4.28;;
36351;SDS011;22382;44.768;17.206;2023-05-29T13:01:18;6.28;;;4.88;;
36351;SDS011;22382;44.768;17.206;2023-05-29T13:03:48;7.43;;;4.28;;
36351;SDS011;22382;44.768;17.206;2023-05-29T13:06:16;7.78;;;4.50;;
36351;SDS011;22382;44.768;17.206;2023-05-29T13:08:44;4.57;;;3.58;;
36351;SDS011;22382;44.768;17.206;2023-05-29T13:11:11;8.25;;;4.40;;
36351;SDS011;22382;44.768;17.206;2023-05-29T13:13:38;4.82;;;4.32;;
36351;SDS011;22382;44.768;17.206;2023-05-29T13:16:06;5.88;;;4.68;;
36351;SDS011;22382;44.768;17.206;2023-05-29T13:18:34;6.60;;;4.40;;
36351;SDS011;22382;44.768;17.206;2023-05-29T13:21:01;5.75;;;4.40;;
36351;SDS011;22382;44.768;17.206;2023-05-29T13:23:28;5.85;;;3.92;;
36351;SDS011;22382;44.768;17.206;2023-05-29T13:25:56;6.35;;;4.68;;
36351;SDS011;22382;44.768;17.206;2023-05-29T13:28:23;6.30;;;4.85;;
36351;SDS011;22382;44.768;17.206;2023-05-29T13:30:51;5.07;;;4.32;;
36351;SDS011;22382;44.768;17.206;2023-05-29T13:33:18;5.70;;;4.57;;
36351;SDS011;22382;44.768;17.206;2023-05-29T13:35:45;6.28;;;4.45;;
36351;SDS011;22382;44.768;17.206;2023-05-29T13:38:12;5.82;;;3.88;;
36351;SDS011;22382;44.768;17.206;2023-05-29T13:40:40;4.32;;;3.92;;
36351;SDS011;22382;44.768;17.206;2023-05-29T13:43:07;8.32;;;4.35;;
36351;SDS011;22382;44.768;17.206;2023-05-29T13:45:34;7.03;;;4.78;;
36351;SDS011;22382;44.768;17.206;2023-05-29T13:48:01;5.45;;;4.43;;
36351;SDS011;22382;44.768;17.206;2023-05-29T13:50:29;4.97;;;4.10;;
36351;SDS011;22382;44.768;17.206;2023-05-29T13:52:56;5.75;;;4.72;;
36351;SDS011;22382;44.768;17.206;2023-05-29T13:55:23;4.82;;;4.20;;
36351;SDS011;22382;44.768;17.206;2023-05-29T13:57:51;6.20;;;4.00;;
36351;SDS011;22382;44.768;17.206;2023-05-29T14:00:19;5.78;;;4.60;;
36351;SDS011;22382;44.768;17.206;2023-05-29T14:02:46;5.45;;;4.45;;
36351;SDS011;22382;44.768;17.206;2023-05-29T14:05:13;6.20;;;4.80;;
36351;SDS011;22382;44.768;17.206;2023-05-29T14:07:41;5.30;;;4.00;;
36351;SDS011;22382;44.768;17.206;2023-05-29T14:10:08;6.75;;;4.47;;
36351;SDS011;22382;44.768;17.206;2023-05-29T14:12:38;7.05;;;4.55;;
36351;SDS011;22382;44.768;17.206;2023-05-29T14:15:05;7.93;;;4.55;;
36351;SDS011;22382;44.768;17.206;2023-05-29T14:17:33;5.68;;;4.47;;
36351;SDS011;22382;44.768;17.206;2023-05-29T14:20:01;9.25;;;4.72;;
36351;SDS011;22382;44.768;17.206;2023-05-29T14:22:31;6.75;;;4.82;;
36351;SDS011;22382;44.768;17.206;2023-05-29T14:24:58;8.52;;;4.65;;
36351;SDS011;22382;44.768;17.206;2023-05-29T14:27:26;5.57;;;4.50;;
36351;SDS011;22382;44.768;17.206;2023-05-29T14:29:53;6.65;;;4.82;;
36351;SDS011;22382;44.768;17.206;2023-05-29T14:32:21;6.55;;;4.60;;
36351;SDS011;22382;44.768;17.206;2023-05-29T14:34:48;5.10;;;4.35;;
36351;SDS011;22382;44.768;17.206;2023-05-29T14:37:16;5.43;;;4.18;;
36351;SDS011;22382;44.768;17.206;2023-05-29T14:39:43;6.32;;;4.75;;
36351;SDS011;22382;44.768;17.206;2023-05-29T14:42:10;6.43;;;3.83;;
36351;SDS011;22382;44.768;17.206;2023-05-29T14:44:37;7.70;;;4.50;;
36351;SDS011;22382;44.768;17.206;2023-05-29T14:47:05;7.05;;;4.45;;
36351;SDS011;22382;44.768;17.206;2023-05-29T14:49:32;7.60;;;5.10;;
36351;SDS011;22382;44.768;17.206;2023-05-29T14:52:00;5.70;;;4.30;;
36351;SDS011;22382;44.768;17.206;2023-05-29T14:54:29;8.77;;;4.65;;
36351;SDS011;22382;44.768;17.206;2023-05-29T14:56:57;6.05;;;4.07;;
36351;SDS011;22382;44.768;17.206;2023-05-29T14:59:24;6.93;;;4.45;;
36351;SDS011;22382;44.768;17.206;2023-05-29T15:01:51;4.70;;;4.15;;
36351;SDS011;22382;44.768;17.206;2023-05-29T15:04:20;5.30;;;4.03;;
36351;SDS011;22382;44.768;17.206;2023-05-29T15:06:47;4.28;;;3.78;;
36351;SDS011;22382;44.768;17.206;2023-05-29T15:09:27;7.60;;;4.40;;